Time;durP1;ratioP1;P1;durP2;ratioP2;P2;SDS_P1;SDS_P2;PMS_P1;PMS_P2;Temp;Humidity;BMP_temperature;BMP_pressure;BME280_temperature;BME280_humidity;BME280_pressure;Samples;Min_cycle;Max_cycle;Signal;HPM_P1;HPM_P2
2022/10/27 00:00:07;;;;;;;48.90;30.70;;;11.20;99.90;;;;;;5054020;28;20304;-81
2022/10/27 00:02:32;;;;;;;44.30;12.97;;;11.20;99.90;;;;;;5078300;28;20240;-80
2022/10/27 00:04:58;;;;;;;36.80;22.20;;;11.10;99.90;;;;;;5066264;28;20565;-81
2022/10/27 00:07:24;;;;;;;36.63;18.53;;;11.00;99.90;;;;;;5055509;28;20255;-81
2022/10/27 00:09:50;;;;;;;30.97;12.10;;;11.00;99.90;;;;;;5073940;28;20189;-81
2022/10/27 00:12:15;;;;;;;36.57;10.70;;;11.00;99.90;;;;;;5073359;28;20343;-82
2022/10/27 00:14:41;;;;;;;37.30;11.83;;;11.00;99.90;;;;;;5055267;28;20205;-82
2022/10/27 00:17:07;;;;;;;24.40;14.13;;;11.00;99.90;;;;;;5066655;28;20246;-82
2022/10/27 00:19:33;;;;;;;29.83;16.43;;;11.00;99.90;;;;;;5075185;28;20263;-81
2022/10/27 00:21:59;;;;;;;32.93;14.83;;;11.00;99.90;;;;;;5095326;28;20246;-81
2022/10/27 00:24:36;;;;;;;21.63;19.50;;;10.90;99.90;;;;;;5085497;28;20187;-81
2022/10/27 00:27:07;;;;;;;30.77;27.47;;;10.90;99.90;;;;;;5085721;28;20181;-82
2022/10/27 00:29:33;;;;;;;45.17;22.43;;;10.90;99.90;;;;;;5109942;28;20177;-81
2022/10/27 00:32:00;;;;;;;19.73;15.90;;;10.80;99.90;;;;;;5095008;28;20211;-81
2022/10/27 00:34:29;;;;;;;30.83;27.97;;;10.70;99.90;;;;;;5110066;28;20213;-80
2022/10/27 00:37:13;;;;;;;35.57;32.03;;;10.70;99.90;;;;;;5099988;28;20253;-80
2022/10/27 00:39:42;;;;;;;28.77;26.03;;;10.60;99.90;;;;;;5074279;28;20174;-80
2022/10/27 00:42:15;;;;;;;15.40;14.20;;;10.60;99.90;;;;;;5071961;28;20197;-80
2022/10/27 00:44:45;;;;;;;24.27;16.97;;;10.50;99.90;;;;;;5073329;28;20196;-80
2022/10/27 00:47:25;;;;;;;45.60;29.50;;;10.50;99.90;;;;;;5103389;28;20196;-81
2022/10/27 00:50:32;;;;;;;52.00;24.87;;;10.60;99.90;;;;;;5112170;28;20181;-80
2022/10/27 00:53:06;;;;;;;46.17;23.33;;;10.60;99.90;;;;;;5015730;28;20319;-82
2022/10/27 00:56:01;;;;;;;26.30;23.87;;;10.50;99.90;;;;;;5075580;28;20205;-83
2022/10/27 00:58:38;;;;;;;60.17;24.23;;;10.50;99.90;;;;;;5060541;28;20191;-82
2022/10/27 01:01:05;;;;;;;29.93;26.47;;;10.50;99.90;;;;;;5067903;28;20179;-82
2022/10/27 01:03:32;;;;;;;57.47;29.87;;;10.40;99.90;;;;;;5058381;28;20247;-82
2022/10/27 01:05:58;;;;;;;39.63;35.60;;;10.40;99.90;;;;;;5070581;28;20214;-81
2022/10/27 01:08:25;;;;;;;32.47;22.07;;;10.30;99.90;;;;;;5100704;28;20188;-81
2022/10/27 01:10:52;;;;;;;21.10;18.67;;;10.40;99.90;;;;;;5081647;28;20182;-81
2022/10/27 01:13:19;;;;;;;30.90;27.77;;;10.30;99.90;;;;;;5069608;28;20582;-82
2022/10/27 01:16:07;;;;;;;32.90;29.63;;;10.30;99.90;;;;;;5060840;28;20713;-82
2022/10/27 01:18:42;;;;;;;33.43;13.00;;;10.20;99.90;;;;;;5072949;28;20181;-83
2022/10/27 01:21:44;;;;;;;38.47;35.50;;;10.20;99.90;;;;;;5080448;28;20162;-84
2022/10/27 01:24:31;;;;;;;54.47;51.23;;;10.20;99.90;;;;;;5100946;28;20173;-82
2022/10/27 01:27:03;;;;;;;38.73;36.43;;;10.20;99.90;;;;;;5101100;28;20173;-81
2022/10/27 01:29:31;;;;;;;33.13;30.40;;;10.10;99.90;;;;;;5105922;28;20184;-82
2022/10/27 01:32:15;;;;;;;23.57;21.50;;;10.20;99.90;;;;;;5081042;28;20212;-82
2022/10/27 01:35:05;;;;;;;26.60;24.20;;;10.20;99.90;;;;;;5078732;28;20296;-82
2022/10/27 01:37:53;;;;;;;31.30;28.97;;;10.20;99.90;;;;;;5066650;28;20235;-83
2022/10/27 01:40:24;;;;;;;21.90;20.17;;;10.30;99.90;;;;;;5059494;28;20177;-83
2022/10/27 01:43:05;;;;;;;20.63;19.13;;;10.30;99.90;;;;;;5061801;28;20204;-81
2022/10/27 01:45:34;;;;;;;27.07;22.77;;;10.30;99.90;;;;;;5061317;28;20211;-83
2022/10/27 01:48:02;;;;;;;26.97;24.93;;;10.30;99.90;;;;;;5064736;28;20193;-83
2022/10/27 01:50:34;;;;;;;22.80;21.33;;;10.30;99.90;;;;;;5099034;28;20188;-81
2022/10/27 01:53:00;;;;;;;31.67;18.73;;;10.30;99.90;;;;;;5098513;28;20288;-83
2022/10/27 01:55:26;;;;;;;31.27;21.70;;;10.30;99.90;;;;;;5081028;28;20201;-82
2022/10/27 01:58:13;;;;;;;38.27;25.17;;;10.30;99.90;;;;;;5093655;28;20180;-81
2022/10/27 02:01:04;;;;;;;57.30;22.90;;;10.30;99.90;;;;;;5076949;28;20664;-82
2022/10/27 02:03:46;;;;;;;27.53;25.03;;;10.40;99.90;;;;;;5079266;28;20237;-82
2022/10/27 02:06:23;;;;;;;41.77;28.97;;;10.40;99.90;;;;;;5078521;28;20185;-82
2022/10/27 02:09:10;;;;;;;53.70;23.63;;;10.40;99.90;;;;;;5036863;28;20193;-81
2022/10/27 02:11:39;;;;;;;43.80;24.13;;;10.40;99.90;;;;;;5037574;28;20178;-82
2022/10/27 02:14:06;;;;;;;48.13;38.13;;;10.40;99.90;;;;;;5057483;28;20189;-82
2022/10/27 02:16:37;;;;;;;18.10;12.73;;;10.40;99.90;;;;;;5057493;28;20170;-81
2022/10/27 02:19:16;;;;;;;44.40;41.77;;;10.40;99.90;;;;;;5074662;28;20220;-82
2022/10/27 02:21:44;;;;;;;29.17;26.93;;;10.30;99.90;;;;;;5060419;28;20205;-82
2022/10/27 02:24:11;;;;;;;41.53;38.50;;;10.20;99.90;;;;;;5077557;28;20180;-84
2022/10/27 02:26:45;;;;;;;27.20;25.03;;;10.20;99.90;;;;;;5060820;28;20177;-84
2022/10/27 02:29:40;;;;;;;29.33;27.17;;;10.20;99.90;;;;;;5060166;28;20236;-83
2022/10/27 02:32:10;;;;;;;18.77;17.47;;;10.20;99.90;;;;;;5056706;28;20724;-83
2022/10/27 02:34:37;;;;;;;23.17;20.80;;;10.20;99.90;;;;;;5059733;28;20236;-84
2022/10/27 02:37:05;;;;;;;20.77;19.23;;;10.10;99.90;;;;;;5060347;28;20173;-83
2022/10/27 02:39:31;;;;;;;25.67;23.77;;;10.00;99.90;;;;;;5058898;28;20170;-83
2022/10/27 02:41:56;;;;;;;31.23;28.63;;;10.00;99.90;;;;;;5076418;28;20201;-83
2022/10/27 02:44:22;;;;;;;26.20;24.17;;;10.00;99.90;;;;;;5058533;28;20260;-84
2022/10/27 02:46:48;;;;;;;25.10;17.93;;;10.00;99.90;;;;;;5058678;28;20272;-83
2022/10/27 02:49:14;;;;;;;27.17;19.87;;;10.00;99.90;;;;;;5058258;28;20685;-83
2022/10/27 02:51:40;;;;;;;24.30;16.47;;;10.00;99.90;;;;;;5057906;28;20177;-83
2022/10/27 02:54:06;;;;;;;31.77;24.90;;;9.90;99.90;;;;;;5058930;28;20182;-82
2022/10/27 02:56:32;;;;;;;29.10;26.93;;;9.90;99.90;;;;;;5059735;28;20185;-83
2022/10/27 02:58:58;;;;;;;55.77;25.93;;;10.00;99.90;;;;;;5078420;28;20193;-83
2022/10/27 03:01:24;;;;;;;38.67;23.90;;;10.00;99.90;;;;;;5079019;28;20183;-83
2022/10/27 03:03:50;;;;;;;42.27;25.03;;;10.00;99.90;;;;;;5088796;28;20176;-82
2022/10/27 03:06:16;;;;;;;24.97;22.60;;;10.00;99.90;;;;;;5100827;28;20169;-82
2022/10/27 03:08:41;;;;;;;23.80;21.93;;;9.90;99.90;;;;;;5064681;28;20248;-84
2022/10/27 03:11:07;;;;;;;15.87;14.47;;;9.90;99.90;;;;;;5055353;28;20181;-84
2022/10/27 03:13:33;;;;;;;20.87;19.03;;;9.80;99.90;;;;;;5057981;28;20229;-85
2022/10/27 03:15:59;;;;;;;25.23;23.63;;;9.80;99.90;;;;;;5058690;28;20255;-84
2022/10/27 03:18:25;;;;;;;23.13;21.53;;;9.80;99.90;;;;;;5091709;28;20183;-83
2022/10/27 03:20:51;;;;;;;21.97;20.17;;;9.70;99.90;;;;;;5077693;28;20594;-84
2022/10/27 03:23:16;;;;;;;23.13;20.67;;;9.70;99.90;;;;;;5095964;28;20222;-82
2022/10/27 03:25:43;;;;;;;32.27;23.90;;;9.70;99.90;;;;;;5111482;28;20204;-84
2022/10/27 03:28:10;;;;;;;47.37;31.47;;;9.70;99.90;;;;;;5080235;28;20299;-84
2022/10/27 03:30:37;;;;;;;69.20;27.63;;;9.70;99.90;;;;;;5081051;28;20203;-84
2022/10/27 03:33:03;;;;;;;41.13;16.83;;;9.70;99.90;;;;;;5079371;28;20208;-84
2022/10/27 03:35:29;;;;;;;22.97;13.00;;;9.70;99.90;;;;;;5078050;28;20291;-84
2022/10/27 03:37:59;;;;;;;18.10;16.67;;;9.80;99.90;;;;;;5097052;28;20206;-82
2022/10/27 03:40:26;;;;;;;28.63;26.93;;;9.80;99.90;;;;;;5091139;28;20173;-82
2022/10/27 03:42:56;;;;;;;28.33;26.47;;;9.70;99.90;;;;;;5058060;28;20243;-82
2022/10/27 03:45:22;;;;;;;16.17;15.10;;;9.70;99.90;;;;;;5076429;28;20272;-82
2022/10/27 03:47:48;;;;;;;25.10;16.67;;;9.70;99.90;;;;;;5085586;28;20187;-82
2022/10/27 03:50:14;;;;;;;23.03;21.03;;;9.70;99.90;;;;;;5077938;28;20212;-81
2022/10/27 03:52:41;;;;;;;25.87;22.03;;;9.70;99.90;;;;;;5094122;28;20268;-84
2022/10/27 03:55:07;;;;;;;38.40;22.10;;;9.80;99.90;;;;;;5074757;28;20666;-84
2022/10/27 03:57:33;;;;;;;41.60;21.93;;;9.80;99.90;;;;;;5074202;28;20179;-84
2022/10/27 03:59:59;;;;;;;22.73;16.40;;;9.90;99.90;;;;;;5086601;28;20177;-84
2022/10/27 04:02:28;;;;;;;21.63;15.33;;;9.90;99.90;;;;;;5063611;28;20506;-84
2022/10/27 04:04:56;;;;;;;23.73;20.90;;;9.90;99.90;;;;;;5056985;28;20185;-84
2022/10/27 04:07:22;;;;;;;17.10;15.47;;;9.90;99.90;;;;;;5062230;28;20554;-83
2022/10/27 04:09:48;;;;;;;12.07;10.93;;;9.90;99.90;;;;;;5077271;28;20185;-84
2022/10/27 04:12:14;;;;;;;31.97;27.93;;;9.80;99.90;;;;;;5078536;28;20565;-86
2022/10/27 04:14:39;;;;;;;27.97;23.30;;;9.70;99.90;;;;;;5073568;28;20209;-83
2022/10/27 04:17:05;;;;;;;22.20;19.90;;;9.70;99.90;;;;;;5079574;28;20251;-84
2022/10/27 04:19:32;;;;;;;38.00;35.80;;;9.60;99.90;;;;;;5086913;28;20273;-82
2022/10/27 04:21:58;;;;;;;30.37;15.73;;;9.60;99.90;;;;;;5051189;28;20201;-81
2022/10/27 04:24:24;;;;;;;32.13;11.00;;;9.50;99.90;;;;;;5053836;28;20356;-83
2022/10/27 04:26:49;;;;;;;25.83;13.83;;;9.50;99.90;;;;;;5054498;28;20185;-83
2022/10/27 04:29:15;;;;;;;48.07;19.87;;;9.50;99.90;;;;;;5074452;28;20550;-84
2022/10/27 04:31:42;;;;;;;26.03;24.07;;;9.50;99.90;;;;;;5073913;28;20681;-83
2022/10/27 04:34:08;;;;;;;22.63;17.93;;;9.50;99.90;;;;;;5076847;28;20263;-83
2022/10/27 04:36:34;;;;;;;38.90;20.17;;;9.50;99.90;;;;;;5077417;28;20715;-83
2022/10/27 04:39:00;;;;;;;22.07;18.17;;;9.60;99.90;;;;;;5087099;28;20189;-83
2022/10/27 04:41:26;;;;;;;34.20;20.40;;;9.60;99.90;;;;;;5079168;28;20176;-86
2022/10/27 04:43:51;;;;;;;30.73;15.03;;;9.60;99.90;;;;;;5079319;28;20611;-84
2022/10/27 04:46:17;;;;;;;21.83;12.03;;;9.60;99.90;;;;;;5080295;28;20641;-82
2022/10/27 04:48:43;;;;;;;24.23;10.97;;;9.70;99.90;;;;;;5081325;28;20684;-82
2022/10/27 04:51:09;;;;;;;21.63;13.77;;;9.70;99.90;;;;;;5088075;28;20177;-83
2022/10/27 04:53:35;;;;;;;18.00;13.77;;;9.70;99.90;;;;;;5091184;28;20304;-82
2022/10/27 04:56:04;;;;;;;31.57;21.23;;;9.60;99.90;;;;;;5089080;28;20204;-84
2022/10/27 04:58:30;;;;;;;40.40;23.27;;;9.60;99.90;;;;;;5085256;28;20177;-84
2022/10/27 05:00:56;;;;;;;35.50;22.33;;;9.60;99.90;;;;;;5088565;28;20197;-82
2022/10/27 05:03:21;;;;;;;45.63;24.23;;;9.60;99.90;;;;;;5073985;28;20198;-83
2022/10/27 05:05:47;;;;;;;61.77;14.63;;;9.50;99.90;;;;;;5067755;28;20173;-83
2022/10/27 05:08:13;;;;;;;37.53;18.33;;;9.60;99.90;;;;;;5078661;28;20200;-84
2022/10/27 05:10:39;;;;;;;54.23;21.30;;;9.60;99.90;;;;;;5077872;28;20721;-83
2022/10/27 05:13:05;;;;;;;22.83;14.90;;;9.60;99.90;;;;;;5074135;28;20200;-84
2022/10/27 05:15:31;;;;;;;34.13;17.77;;;9.50;99.90;;;;;;5082717;28;20231;-84
2022/10/27 05:17:59;;;;;;;41.50;20.53;;;9.50;99.90;;;;;;5069236;28;20178;-83
2022/10/27 05:20:25;;;;;;;30.10;27.27;;;9.40;99.90;;;;;;5062284;28;20246;-84
2022/10/27 05:22:52;;;;;;;18.80;17.17;;;9.40;99.90;;;;;;5061638;28;20291;-84
2022/10/27 05:25:18;;;;;;;20.47;19.07;;;9.30;99.90;;;;;;5095736;28;20174;-82
2022/10/27 05:27:43;;;;;;;26.40;24.60;;;9.20;99.90;;;;;;5074836;28;20258;-84
2022/10/27 05:30:11;;;;;;;33.30;30.83;;;9.20;99.90;;;;;;5063740;28;20243;-83
2022/10/27 05:32:38;;;;;;;20.27;18.37;;;9.10;99.90;;;;;;5080583;28;20210;-84
2022/10/27 05:35:04;;;;;;;15.00;13.80;;;9.10;99.90;;;;;;5076239;28;20221;-84
2022/10/27 05:37:30;;;;;;;13.13;10.27;;;9.00;99.90;;;;;;5059976;28;20265;-70
2022/10/27 05:39:56;;;;;;;15.33;14.07;;;8.90;99.90;;;;;;5072654;28;20184;-70
2022/10/27 05:42:22;;;;;;;20.63;18.90;;;8.90;99.90;;;;;;5072320;28;20202;-70
2022/10/27 05:44:48;;;;;;;16.73;15.00;;;8.90;99.90;;;;;;5072578;28;20195;-69
2022/10/27 05:47:13;;;;;;;17.63;16.47;;;8.90;99.90;;;;;;5072493;28;20232;-70
2022/10/27 05:49:39;;;;;;;16.80;15.47;;;8.90;99.90;;;;;;5073184;28;20181;-70
2022/10/27 05:52:05;;;;;;;14.53;13.70;;;8.90;99.90;;;;;;5062093;28;20205;-71
2022/10/27 05:54:31;;;;;;;12.07;11.20;;;8.90;99.90;;;;;;5083005;28;20212;-77
2022/10/27 05:56:56;;;;;;;15.47;14.37;;;8.80;99.90;;;;;;5077365;28;20173;-77
2022/10/27 05:59:22;;;;;;;15.17;14.00;;;8.80;99.90;;;;;;5072938;28;20182;-78
2022/10/27 06:01:48;;;;;;;9.63;8.97;;;8.80;99.90;;;;;;5054901;28;20202;-76
2022/10/27 06:04:15;;;;;;;9.13;8.47;;;8.70;99.90;;;;;;5072377;28;20207;-77
2022/10/27 06:06:41;;;;;;;16.17;15.17;;;8.70;99.90;;;;;;5065008;28;20678;-77
2022/10/27 06:09:07;;;;;;;18.93;17.83;;;8.70;99.90;;;;;;5054734;28;20177;-78
2022/10/27 06:11:33;;;;;;;16.70;15.50;;;8.70;99.90;;;;;;5072451;28;20178;-76
2022/10/27 06:13:58;;;;;;;9.73;8.97;;;8.70;99.90;;;;;;5055266;28;20175;-77
2022/10/27 06:16:24;;;;;;;9.33;8.43;;;8.70;99.90;;;;;;5072187;28;20220;-76
2022/10/27 06:18:51;;;;;;;10.40;8.80;;;8.70;99.90;;;;;;5071606;28;20184;-77
2022/10/27 06:21:18;;;;;;;12.23;10.93;;;8.70;99.90;;;;;;5072474;28;20181;-77
2022/10/27 06:23:47;;;;;;;16.10;15.00;;;8.70;99.90;;;;;;5054890;28;20202;-77
2022/10/27 06:26:13;;;;;;;18.73;17.33;;;8.70;99.90;;;;;;5071335;28;20186;-77
2022/10/27 06:28:38;;;;;;;13.17;11.93;;;8.80;99.90;;;;;;5054711;28;20208;-75
2022/10/27 06:31:04;;;;;;;14.87;13.77;;;8.80;99.90;;;;;;5072509;28;20682;-76
2022/10/27 06:33:30;;;;;;;13.87;12.53;;;8.90;99.90;;;;;;5072087;28;20301;-76
2022/10/27 06:35:56;;;;;;;19.23;17.90;;;8.90;99.90;;;;;;5072214;28;20554;-77
2022/10/27 06:38:22;;;;;;;78.53;74.27;;;9.00;99.90;;;;;;5072202;28;20170;-70
2022/10/27 06:40:48;;;;;;;74.20;69.97;;;9.00;99.90;;;;;;5072247;28;20266;-70
2022/10/27 06:43:13;;;;;;;83.03;78.23;;;9.10;99.90;;;;;;5070735;28;20204;-71
2022/10/27 06:45:40;;;;;;;45.17;42.47;;;9.20;99.90;;;;;;5070857;28;20600;-71
2022/10/27 06:48:08;;;;;;;67.03;62.70;;;9.30;99.90;;;;;;5054133;28;20189;-72
2022/10/27 06:50:34;;;;;;;87.77;82.70;;;9.30;99.90;;;;;;5071396;28;20193;-71
2022/10/27 06:53:01;;;;;;;102.23;96.33;;;9.40;99.90;;;;;;5067559;28;21046;-75
2022/10/27 06:55:27;;;;;;;58.73;55.50;;;9.40;99.90;;;;;;5061335;28;20714;-71
2022/10/27 06:57:53;;;;;;;62.20;58.63;;;9.50;99.90;;;;;;5071946;28;20186;-70
2022/10/27 07:00:19;;;;;;;8.30;7.73;;;9.60;99.90;;;;;;5071604;28;20191;-69
2022/10/27 07:02:46;;;;;;;15.13;13.63;;;9.70;99.90;;;;;;5072090;28;20540;-69
2022/10/27 07:05:12;;;;;;;59.27;55.00;;;9.90;99.90;;;;;;5071657;28;20185;-69
2022/10/27 07:07:38;;;;;;;25.07;23.23;;;10.10;99.90;;;;;;5053203;28;20192;-70
2022/10/27 07:10:06;;;;;;;157.70;148.93;;;10.40;99.90;;;;;;5071865;28;20555;-74
2022/10/27 07:12:34;;;;;;;101.23;94.93;;;10.80;99.90;;;;;;5071705;28;20197;-74
2022/10/27 07:15:00;;;;;;;66.03;62.17;;;11.20;99.90;;;;;;5071288;28;20216;-73
2022/10/27 07:17:25;;;;;;;43.60;41.00;;;11.40;99.90;;;;;;5071106;28;20173;-75
2022/10/27 07:19:51;;;;;;;26.07;24.33;;;11.40;99.90;;;;;;5071691;28;20180;-75
2022/10/27 07:22:17;;;;;;;16.17;14.90;;;11.50;99.90;;;;;;5053323;28;20725;-75
2022/10/27 07:24:43;;;;;;;23.87;22.07;;;11.80;99.90;;;;;;5071772;28;20185;-75
2022/10/27 07:27:08;;;;;;;71.83;68.03;;;12.00;99.90;;;;;;5071126;28;20177;-73
2022/10/27 07:29:34;;;;;;;203.13;192.00;;;12.20;99.90;;;;;;5071309;28;20189;-75
2022/10/27 07:32:00;;;;;;;60.77;56.53;;;12.40;99.90;;;;;;5053072;28;20205;-73
2022/10/27 07:34:26;;;;;;;14.10;12.93;;;12.60;99.90;;;;;;5073748;28;20236;-73
2022/10/27 07:36:52;;;;;;;17.30;14.13;;;13.00;99.90;;;;;;5070293;28;20314;-75
2022/10/27 07:39:17;;;;;;;25.43;23.67;;;13.40;99.90;;;;;;5051907;28;20186;-74
2022/10/27 07:41:43;;;;;;;28.90;27.20;;;13.70;99.90;;;;;;5070815;28;20206;-74
2022/10/27 07:44:09;;;;;;;18.20;17.10;;;14.00;99.90;;;;;;5069913;28;20206;-73
2022/10/27 07:46:35;;;;;;;11.60;9.90;;;14.10;99.90;;;;;;5071452;28;20559;-73
2022/10/27 07:49:00;;;;;;;10.23;7.63;;;14.20;99.90;;;;;;5071133;28;20188;-74
2022/10/27 07:51:26;;;;;;;9.97;9.10;;;14.30;99.90;;;;;;5071211;28;20165;-74
2022/10/27 07:53:52;;;;;;;11.43;10.60;;;14.70;99.90;;;;;;5071478;28;20184;-74
2022/10/27 07:56:18;;;;;;;16.00;14.70;;;15.00;99.90;;;;;;5071110;28;20704;-76
2022/10/27 07:58:47;;;;;;;16.27;14.80;;;15.10;99.90;;;;;;5071190;28;20224;-75
2022/10/27 08:01:12;;;;;;;19.40;17.97;;;15.10;99.90;;;;;;5053413;28;20269;-75
2022/10/27 08:03:38;;;;;;;22.83;21.17;;;15.30;99.90;;;;;;5071228;28;20650;-76
2022/10/27 08:06:04;;;;;;;23.70;21.97;;;15.50;99.90;;;;;;5070845;28;20181;-75
2022/10/27 08:08:30;;;;;;;11.50;10.63;;;15.80;99.90;;;;;;5071126;28;20650;-75
2022/10/27 08:10:56;;;;;;;11.60;10.80;;;15.90;99.90;;;;;;5072750;28;20665;-75
2022/10/27 08:13:23;;;;;;;7.43;6.90;;;16.00;99.90;;;;;;5073736;28;20205;-74
2022/10/27 08:15:48;;;;;;;13.73;12.87;;;16.20;99.90;;;;;;5071020;28;20197;-75
2022/10/27 08:18:14;;;;;;;18.73;17.47;;;16.20;99.90;;;;;;5070753;28;20276;-76
2022/10/27 08:20:45;;;;;;;22.40;20.83;;;16.40;99.90;;;;;;5070982;28;20681;-71
2022/10/27 08:23:13;;;;;;;27.57;25.90;;;16.80;99.90;;;;;;5053082;28;20198;-71
2022/10/27 08:25:39;;;;;;;32.50;30.57;;;16.90;99.90;;;;;;5053014;28;20233;-72
2022/10/27 08:28:05;;;;;;;34.13;32.03;;;17.10;99.90;;;;;;5070493;28;20181;-73
2022/10/27 08:30:32;;;;;;;29.47;27.40;;;17.20;99.90;;;;;;5071136;28;20181;-73
2022/10/27 08:33:00;;;;;;;24.37;22.83;;;17.10;99.90;;;;;;5070706;28;20248;-73
2022/10/27 08:35:27;;;;;;;23.10;18.87;;;17.10;99.90;;;;;;5070561;28;20624;-73
2022/10/27 08:38:01;;;;;;;18.60;17.30;;;17.40;99.90;;;;;;5052375;28;20189;-73
2022/10/27 08:40:39;;;;;;;20.50;19.13;;;17.60;99.90;;;;;;5083861;28;20181;-74
2022/10/27 08:43:42;;;;;;;13.73;10.50;;;17.80;99.90;;;;;;5074296;28;20212;-74
2022/10/27 08:46:15;;;;;;;10.83;10.07;;;18.00;99.90;;;;;;5053582;28;20189;-73
2022/10/27 08:48:43;;;;;;;13.57;8.70;;;18.20;99.90;;;;;;5047940;28;20324;-73
2022/10/27 08:51:15;;;;;;;10.87;7.97;;;18.60;99.90;;;;;;5056311;28;20683;-74
2022/10/27 08:53:45;;;;;;;12.80;11.13;;;19.20;99.90;;;;;;5074500;28;20209;-73
2022/10/27 08:56:11;;;;;;;11.50;10.43;;;19.30;99.90;;;;;;5073944;28;20804;-74
2022/10/27 08:58:40;;;;;;;9.73;7.27;;;19.70;99.90;;;;;;5055605;28;20680;-74
2022/10/27 09:01:18;;;;;;;10.90;9.90;;;20.30;99.90;;;;;;5070667;28;20212;-74
2022/10/27 09:04:14;;;;;;;39.70;37.03;;;20.70;99.90;;;;;;5050722;28;20537;-73
2022/10/27 09:07:05;;;;;;;50.67;47.70;;;21.00;99.90;;;;;;5013928;28;20217;-74
2022/10/27 09:09:40;;;;;;;68.80;64.97;;;21.50;99.90;;;;;;5056430;28;20272;-74
2022/10/27 09:12:41;;;;;;;58.67;55.33;;;21.70;99.90;;;;;;5074200;28;20230;-74
2022/10/27 09:15:16;;;;;;;33.10;30.80;;;22.00;99.90;;;;;;5094216;28;20207;-74
2022/10/27 09:17:55;;;;;;;28.58;26.65;;;22.30;99.90;;;;;;5076777;28;20196;-74
2022/10/27 09:20:31;;;;;;;29.73;27.35;;;22.40;99.90;;;;;;5074236;28;20562;-74
2022/10/27 09:23:01;;;;;;;35.92;33.50;;;22.70;99.90;;;;;;5055858;28;20207;-74
2022/10/27 09:25:27;;;;;;;27.48;25.60;;;22.70;99.90;;;;;;5073524;28;20242;-76
2022/10/27 09:27:57;;;;;;;17.95;16.45;;;22.90;99.90;;;;;;5073381;28;20185;-72
2022/10/27 09:30:23;;;;;;;24.35;22.17;;;23.20;99.90;;;;;;5073956;28;20567;-73
2022/10/27 09:32:55;;;;;;;20.88;19.27;;;23.90;99.90;;;;;;5073956;28;20223;-74
2022/10/27 09:35:25;;;;;;;30.70;28.88;;;24.30;99.90;;;;;;5073119;28;20329;-73
2022/10/27 09:37:52;;;;;;;23.60;22.00;;;25.00;99.90;;;;;;5055482;28;20181;-73
2022/10/27 09:40:22;;;;;;;16.73;15.25;;;24.90;99.90;;;;;;5073659;28;20273;-70
2022/10/27 09:42:52;;;;;;;16.77;14.27;;;24.80;99.90;;;;;;5073484;28;20694;-72
2022/10/27 09:45:23;;;;;;;16.25;11.75;;;24.70;99.90;;;;;;5049064;28;20190;-72
2022/10/27 09:48:03;;;;;;;10.30;9.23;;;24.80;99.90;;;;;;5055931;28;20728;-73
2022/10/27 09:50:58;;;;;;;10.07;8.73;;;25.10;99.90;;;;;;5052970;28;20213;-72
2022/10/27 09:53:51;;;;;;;12.30;7.80;;;25.20;99.90;;;;;;5061712;28;20296;-74
2022/10/27 09:56:34;;;;;;;14.25;7.53;;;25.50;99.90;;;;;;5073280;28;20221;-77
2022/10/27 09:59:03;;;;;;;10.13;6.22;;;26.00;99.90;;;;;;5072729;28;20591;-77
2022/10/27 10:01:48;;;;;;;10.70;7.28;;;26.30;99.90;;;;;;5070466;28;20697;-77
2022/10/27 10:04:41;;;;;;;12.57;8.07;;;27.00;99.90;;;;;;5072290;28;20404;-77
2022/10/27 10:07:26;;;;;;;10.55;7.90;;;27.10;99.90;;;;;;5072637;28;20182;-77
2022/10/27 10:10:01;;;;;;;16.52;7.72;;;27.30;99.90;;;;;;5072262;28;20189;-77
2022/10/27 10:12:28;;;;;;;12.05;7.60;;;27.90;99.90;;;;;;5054806;28;20197;-77
2022/10/27 10:15:17;;;;;;;17.73;7.53;;;27.70;99.90;;;;;;5052379;28;20241;-76
2022/10/27 10:17:53;;;;;;;10.18;8.02;;;27.70;99.90;;;;;;5044679;28;20182;-77
2022/10/27 10:20:40;;;;;;;8.80;6.78;;;27.90;99.90;;;;;;5054139;28;20228;-75
2022/10/27 10:23:20;;;;;;;12.70;7.05;;;27.90;99.90;;;;;;5059457;28;20201;-76
2022/10/27 10:25:48;;;;;;;9.45;5.28;;;28.40;99.20;;;;;;5054506;28;20780;-76
2022/10/27 10:28:39;;;;;;;8.43;5.00;;;28.60;98.90;;;;;;5054170;28;20178;-77
2022/10/27 10:31:08;;;;;;;8.60;4.90;;;28.60;98.20;;;;;;5055003;28;20548;-76
2022/10/27 10:33:38;;;;;;;13.80;5.10;;;28.30;97.90;;;;;;5072108;28;20225;-76
2022/10/27 10:36:33;;;;;;;9.55;5.15;;;28.30;98.00;;;;;;5072045;28;20205;-76
2022/10/27 10:39:00;;;;;;;8.30;5.25;;;28.00;97.70;;;;;;5072341;28;20253;-76
2022/10/27 10:41:27;;;;;;;11.18;4.82;;;28.00;97.60;;;;;;5091212;23;20326;-69
2022/10/27 10:44:06;;;;;;;9.25;4.80;;;28.10;97.60;;;;;;5049018;28;20216;-70
2022/10/27 10:46:33;;;;;;;14.27;5.50;;;28.00;97.30;;;;;;5051647;28;20281;-72
2022/10/27 10:48:59;;;;;;;10.10;4.47;;;28.20;97.50;;;;;;5051536;28;20226;-71
2022/10/27 10:51:33;;;;;;;4.97;4.57;;;28.10;96.40;;;;;;5033636;28;20251;-72
2022/10/27 10:54:13;;;;;;;6.90;5.35;;;28.40;96.80;;;;;;5033699;28;20178;-72
2022/10/27 10:56:39;;;;;;;9.13;8.40;;;29.20;95.20;;;;;;5051606;28;20190;-68
2022/10/27 10:59:15;;;;;;;10.70;9.50;;;29.40;93.70;;;;;;5042766;28;20833;-73
2022/10/27 11:01:43;;;;;;;9.65;8.85;;;29.90;92.60;;;;;;5041437;28;20576;-71
2022/10/27 11:04:12;;;;;;;16.40;7.88;;;29.80;92.10;;;;;;5034257;28;20189;-71
2022/10/27 11:07:03;;;;;;;18.73;17.38;;;29.50;92.20;;;;;;5046502;28;20647;-71
2022/10/27 11:09:38;;;;;;;14.13;13.20;;;29.90;91.00;;;;;;5051852;28;20239;-71
2022/10/27 11:12:25;;;;;;;10.00;9.10;;;29.50;91.20;;;;;;5062982;28;20288;-73
2022/10/27 11:14:52;;;;;;;25.40;23.67;;;29.40;91.60;;;;;;5041882;28;20210;-73
2022/10/27 11:17:21;;;;;;;62.67;58.38;;;30.10;90.30;;;;;;5031695;28;20190;-73
2022/10/27 11:19:47;;;;;;;77.03;72.65;;;30.90;87.80;;;;;;5032097;28;20195;-74
2022/10/27 11:22:17;;;;;;;72.93;69.00;;;31.30;86.30;;;;;;5034881;28;20202;-72
2022/10/27 11:24:51;;;;;;;61.00;57.42;;;31.10;85.10;;;;;;5051097;28;20189;-73
2022/10/27 11:27:26;;;;;;;59.53;56.15;;;31.40;82.80;;;;;;5050931;28;20236;-72
2022/10/27 11:30:02;;;;;;;52.92;49.33;;;31.80;80.90;;;;;;5033838;28;20190;-72
2022/10/27 11:32:40;;;;;;;45.60;43.05;;;31.60;79.40;;;;;;5050895;28;20215;-72
2022/10/27 11:35:19;;;;;;;60.20;56.88;;;31.50;79.90;;;;;;5051356;28;20197;-73
2022/10/27 11:37:50;;;;;;;54.50;50.65;;;31.10;81.40;;;;;;5029838;28;20225;-73
2022/10/27 11:40:25;;;;;;;40.90;38.40;;;30.90;80.10;;;;;;5040909;28;20194;-74
2022/10/27 11:43:02;;;;;;;26.17;24.27;;;31.90;76.90;;;;;;5043917;28;20694;-72
2022/10/27 11:46:09;;;;;;;28.02;25.83;;;31.90;76.30;;;;;;5048087;28;20257;-73
2022/10/27 11:48:41;;;;;;;31.80;29.52;;;31.70;76.30;;;;;;5020837;28;20293;-72
2022/10/27 11:51:25;;;;;;;11.07;10.05;;;31.60;75.20;;;;;;5033419;28;20244;-72
2022/10/27 11:53:51;;;;;;;8.05;6.50;;;32.20;74.50;;;;;;5050977;28;20201;-72
2022/10/27 11:56:25;;;;;;;8.02;6.72;;;32.20;73.50;;;;;;5052722;28;20202;-74
2022/10/27 11:59:22;;;;;;;13.93;12.75;;;31.90;73.40;;;;;;5051383;28;20212;-75
2022/10/27 12:02:12;;;;;;;8.95;7.00;;;31.80;73.80;;;;;;5033513;28;20218;-76
2022/10/27 12:04:53;;;;;;;12.30;6.65;;;32.30;71.90;;;;;;5019478;28;20251;-76
2022/10/27 12:07:37;;;;;;;10.27;6.90;;;32.40;70.40;;;;;;5050802;28;20676;-74
2022/10/27 12:10:26;;;;;;;9.95;6.10;;;32.90;69.60;;;;;;5051365;28;20184;-75
2022/10/27 12:12:59;;;;;;;8.27;7.35;;;32.80;68.40;;;;;;5050577;28;20202;-75
2022/10/27 12:15:33;;;;;;;7.88;7.18;;;33.10;67.90;;;;;;5053816;28;20671;-76
2022/10/27 12:18:14;;;;;;;10.27;7.32;;;32.80;67.30;;;;;;5051551;28;20213;-76
2022/10/27 12:20:46;;;;;;;10.65;6.53;;;33.10;67.10;;;;;;5050939;28;20639;-76
2022/10/27 12:23:21;;;;;;;9.60;7.32;;;33.30;67.20;;;;;;5033942;28;20245;-76
2022/10/27 12:26:09;;;;;;;8.15;7.40;;;33.60;65.70;;;;;;5040100;28;20192;-76
2022/10/27 12:28:36;;;;;;;10.27;4.90;;;33.90;63.10;;;;;;5057193;28;20196;-76
2022/10/27 12:31:07;;;;;;;11.32;5.20;;;34.10;62.90;;;;;;5057050;28;20181;-77
2022/10/27 12:33:35;;;;;;;9.23;4.75;;;33.90;62.50;;;;;;5039856;28;20181;-76
2022/10/27 12:36:35;;;;;;;9.00;5.45;;;33.70;62.20;;;;;;5057037;28;20661;-76
2022/10/27 12:39:32;;;;;;;8.57;3.85;;;33.30;62.80;;;;;;5054261;28;20174;-75
2022/10/27 12:42:17;;;;;;;4.50;3.30;;;33.60;62.00;;;;;;5053588;28;20368;-77
2022/10/27 12:45:14;;;;;;;8.70;4.47;;;33.50;61.70;;;;;;5023499;28;20182;-78
2022/10/27 12:47:52;;;;;;;8.65;4.40;;;33.70;62.00;;;;;;5033297;28;20206;-77
2022/10/27 12:50:33;;;;;;;10.07;4.78;;;33.80;61.00;;;;;;5051113;28;20182;-77
2022/10/27 12:53:38;;;;;;;10.07;4.07;;;33.70;60.00;;;;;;5040164;28;20198;-77